createdAt,value
2018-11-29T00:00:05.407Z,21.18
2018-11-29T00:01:08.804Z,21.22
2018-11-29T00:02:12.260Z,21.24
2018-11-29T00:03:15.699Z,21.24
2018-11-29T00:04:19.146Z,21.24
2018-11-29T00:05:22.571Z,21.25
2018-11-29T00:06:25.997Z,21.23
2018-11-29T00:07:29.415Z,21.24
2018-11-29T00:08:32.854Z,21.22
2018-11-29T00:09:39.437Z,21.21
2018-11-29T00:10:42.913Z,21.18
2018-11-29T00:11:46.314Z,21.16
2018-11-29T00:12:49.771Z,21.12
2018-11-29T00:13:53.232Z,21.09
2018-11-29T00:14:56.640Z,21.02
2018-11-29T00:16:00.067Z,21.02
2018-11-29T00:17:03.518Z,21.00
2018-11-29T00:18:07.112Z,20.96
2018-11-29T00:19:10.585Z,20.93
2018-11-29T00:20:18.252Z,20.90
2018-11-29T00:21:21.703Z,20.93
2018-11-29T00:22:25.109Z,20.93
2018-11-29T00:23:28.558Z,20.98
2018-11-29T00:24:31.972Z,21.07
2018-11-29T00:25:35.416Z,21.12
2018-11-29T00:26:38.820Z,21.15
2018-11-29T00:27:42.397Z,21.18
2018-11-29T00:28:45.845Z,21.21
2018-11-29T00:29:49.307Z,21.25
2018-11-29T00:30:52.749Z,21.29
2018-11-29T00:31:56.169Z,21.27
2018-11-29T00:32:59.578Z,21.29
2018-11-29T00:34:02.991Z,21.26
2018-11-29T00:35:08.151Z,21.26
2018-11-29T00:36:11.536Z,21.25
2018-11-29T00:37:14.941Z,21.26
2018-11-29T00:38:18.392Z,21.26
2018-11-29T00:39:21.829Z,21.23
2018-11-29T00:40:25.341Z,21.20
2018-11-29T00:41:28.769Z,21.17
2018-11-29T00:42:32.209Z,21.15
2018-11-29T00:43:35.654Z,21.10
2018-11-29T00:44:39.035Z,21.06
2018-11-29T00:45:42.517Z,21.05
2018-11-29T00:46:45.954Z,21.03
2018-11-29T00:47:49.784Z,20.95
2018-11-29T00:48:53.221Z,20.97
2018-11-29T00:49:56.664Z,20.97
2018-11-29T00:51:00.066Z,20.99
2018-11-29T00:52:03.498Z,21.09
2018-11-29T00:53:06.961Z,21.12
2018-11-29T00:54:10.367Z,21.18
2018-11-29T00:55:17.573Z,21.19
2018-11-29T00:56:21.050Z,21.22
2018-11-29T00:57:24.434Z,21.30
2018-11-29T00:58:27.873Z,21.31
2018-11-29T00:59:31.322Z,21.30
2018-11-29T01:00:34.754Z,21.30
2018-11-29T01:01:42.359Z,21.30
2018-11-29T01:02:45.780Z,21.29
2018-11-29T01:03:49.224Z,21.28
2018-11-29T01:04:52.641Z,21.27
2018-11-29T01:05:56.084Z,21.26
2018-11-29T01:06:59.638Z,21.24
2018-11-29T01:08:03.077Z,21.21
2018-11-29T01:09:08.882Z,21.20
2018-11-29T01:10:17.132Z,21.18
2018-11-29T01:11:20.626Z,21.14
2018-11-29T01:12:24.111Z,21.12
2018-11-29T01:13:27.511Z,21.09
2018-11-29T01:14:30.935Z,21.05
2018-11-29T01:15:34.348Z,21.01
2018-11-29T01:16:37.776Z,20.97
2018-11-29T01:17:41.238Z,20.93
2018-11-29T01:18:44.602Z,20.93
2018-11-29T01:19:48.042Z,20.92
2018-11-29T01:20:51.455Z,20.99
2018-11-29T01:21:54.851Z,21.00
2018-11-29T01:22:58.347Z,21.08
2018-11-29T01:24:01.777Z,21.13
2018-11-29T01:25:06.182Z,21.18
2018-11-29T01:26:09.584Z,21.24
2018-11-29T01:27:13.019Z,21.28
2018-11-29T01:28:16.453Z,21.30
2018-11-29T01:29:20.015Z,21.31
2018-11-29T01:30:23.447Z,21.32
2018-11-29T01:31:26.843Z,21.33
2018-11-29T01:32:30.267Z,21.32
2018-11-29T01:33:33.671Z,21.31
2018-11-29T01:34:37.105Z,21.31
2018-11-29T01:35:40.552Z,21.30
2018-11-29T01:36:43.939Z,21.28
2018-11-29T01:37:47.440Z,21.25
2018-11-29T01:38:50.896Z,21.25
2018-11-29T01:39:54.347Z,21.22
2018-11-29T01:40:57.727Z,21.21
2018-11-29T01:42:01.190Z,21.18
2018-11-29T01:43:04.797Z,21.17
2018-11-29T01:44:08.319Z,21.13
2018-11-29T01:45:12.051Z,21.08
2018-11-29T01:46:15.453Z,21.06
2018-11-29T01:47:18.917Z,21.01
2018-11-29T01:48:22.379Z,21.00
2018-11-29T01:49:25.813Z,21.02
2018-11-29T01:50:29.234Z,21.05
2018-11-29T01:51:32.684Z,21.11
2018-11-29T01:52:36.139Z,21.16
2018-11-29T01:53:39.590Z,21.24
2018-11-29T01:54:42.999Z,21.28
2018-11-29T01:55:46.438Z,21.32
2018-11-29T01:56:49.914Z,21.34
2018-11-29T01:57:53.382Z,21.35
2018-11-29T01:58:56.814Z,21.35
2018-11-29T02:00:00.232Z,21.35
2018-11-29T02:01:03.683Z,21.39
2018-11-29T02:02:07.103Z,21.38
2018-11-29T02:03:10.544Z,21.36
2018-11-29T02:04:13.961Z,21.32
2018-11-29T02:05:17.516Z,21.33
2018-11-29T02:06:22.249Z,21.31
2018-11-29T02:07:25.781Z,21.29
2018-11-29T02:08:30.183Z,21.27
2018-11-29T02:09:33.577Z,21.24
2018-11-29T02:10:42.392Z,21.20
2018-11-29T02:11:46.285Z,21.20
2018-11-29T02:12:49.789Z,21.16
2018-11-29T02:13:53.214Z,21.12
2018-11-29T02:14:56.766Z,21.09
2018-11-29T02:16:00.161Z,21.04
2018-11-29T02:17:03.622Z,21.02
2018-11-29T02:18:07.021Z,21.01
2018-11-29T02:19:10.464Z,21.01
2018-11-29T02:20:17.084Z,21.05
2018-11-29T02:21:21.657Z,21.16
2018-11-29T02:22:24.085Z,21.18
2018-11-29T02:23:27.497Z,21.26
2018-11-29T02:24:30.920Z,21.27
2018-11-29T02:25:34.329Z,21.32
2018-11-29T02:26:37.775Z,21.32
2018-11-29T02:27:41.237Z,21.35
2018-11-29T02:28:47.228Z,21.43
2018-11-29T02:29:50.652Z,21.42
2018-11-29T02:30:54.103Z,21.41
2018-11-29T02:31:57.540Z,21.41
2018-11-29T02:33:00.963Z,21.38
2018-11-29T02:34:05.608Z,21.39
2018-11-29T02:35:09.057Z,21.38
2018-11-29T02:36:12.483Z,21.38
2018-11-29T02:37:15.917Z,21.34
2018-11-29T02:38:19.319Z,21.33
2018-11-29T02:39:22.745Z,21.31
2018-11-29T02:40:26.214Z,21.28
2018-11-29T02:41:29.715Z,21.25
2018-11-29T02:42:33.147Z,21.24
2018-11-29T02:43:36.583Z,21.20
2018-11-29T02:44:39.975Z,21.17
2018-11-29T02:45:43.478Z,21.14
2018-11-29T02:46:46.965Z,21.11
2018-11-29T02:47:50.449Z,21.08
2018-11-29T02:48:53.858Z,21.06
2018-11-29T02:49:57.372Z,21.02
2018-11-29T02:51:00.789Z,21.01
2018-11-29T02:52:04.276Z,20.98
2018-11-29T02:53:07.724Z,20.97
2018-11-29T02:54:11.118Z,20.94
2018-11-29T02:55:14.557Z,20.92
2018-11-29T02:56:18.095Z,20.90
2018-11-29T02:57:21.488Z,20.88
2018-11-29T02:58:24.986Z,20.83
2018-11-29T02:59:28.411Z,20.80
2018-11-29T03:00:32.032Z,20.77
2018-11-29T03:01:35.438Z,20.73
2018-11-29T03:02:38.847Z,20.70
2018-11-29T03:03:42.282Z,20.66
2018-11-29T03:04:45.738Z,20.63
2018-11-29T03:05:49.153Z,20.61
2018-11-29T03:06:52.593Z,20.58
2018-11-29T03:07:56.033Z,20.56
2018-11-29T03:08:59.428Z,20.53
2018-11-29T03:10:03.158Z,20.50
2018-11-29T03:11:06.594Z,20.49
2018-11-29T03:12:10.027Z,20.47
2018-11-29T03:13:13.384Z,20.44
2018-11-29T03:14:16.794Z,20.44
2018-11-29T03:15:20.283Z,20.39
2018-11-29T03:16:23.691Z,20.38
2018-11-29T03:17:27.222Z,20.36
2018-11-29T03:18:30.652Z,20.32
2018-11-29T03:19:34.053Z,20.31
2018-11-29T03:20:37.416Z,20.30
2018-11-29T03:21:40.832Z,20.28
2018-11-29T03:22:44.291Z,20.27
2018-11-29T03:23:47.710Z,20.27
2018-11-29T03:24:51.115Z,20.24
2018-11-29T03:25:54.645Z,20.22
2018-11-29T03:26:58.072Z,20.20
2018-11-29T03:28:01.514Z,20.20
2018-11-29T03:29:04.929Z,20.19
2018-11-29T03:30:14.585Z,20.17
2018-11-29T03:31:18.026Z,20.16
2018-11-29T03:32:21.507Z,20.13
2018-11-29T03:33:24.951Z,20.11
2018-11-29T03:34:28.352Z,20.08
2018-11-29T03:35:31.790Z,20.07
2018-11-29T03:36:35.603Z,20.06
2018-11-29T03:37:39.056Z,20.04
2018-11-29T03:38:42.509Z,20.02
2018-11-29T03:39:45.881Z,20.01
2018-11-29T03:40:49.283Z,19.99
2018-11-29T03:41:52.696Z,19.98
2018-11-29T03:42:56.118Z,19.95
2018-11-29T03:43:59.508Z,19.94
2018-11-29T03:45:03.030Z,19.93
2018-11-29T03:46:06.546Z,19.91
2018-11-29T03:47:09.943Z,19.90
2018-11-29T03:48:13.565Z,19.89
2018-11-29T03:49:16.995Z,19.88
2018-11-29T03:50:20.421Z,19.86
2018-11-29T03:51:23.788Z,19.85
2018-11-29T03:52:27.208Z,19.86
2018-11-29T03:53:30.628Z,19.86
2018-11-29T03:54:34.105Z,19.85
2018-11-29T03:55:37.546Z,19.83
2018-11-29T03:56:41.039Z,19.83
2018-11-29T03:57:44.409Z,19.81
2018-11-29T03:58:47.875Z,19.81
2018-11-29T03:59:51.338Z,19.79
2018-11-29T04:00:54.768Z,19.80
2018-11-29T04:01:58.245Z,19.79
2018-11-29T04:03:01.680Z,19.78
2018-11-29T04:04:05.415Z,19.76
2018-11-29T04:05:08.982Z,19.76
2018-11-29T04:06:12.420Z,19.74
2018-11-29T04:07:15.858Z,19.74
2018-11-29T04:08:19.254Z,19.72
2018-11-29T04:09:22.644Z,19.71
2018-11-29T04:10:26.119Z,19.70
2018-11-29T04:11:29.534Z,19.70
2018-11-29T04:12:32.927Z,19.70
2018-11-29T04:13:36.367Z,19.69
2018-11-29T04:14:39.758Z,19.69
2018-11-29T04:15:43.221Z,19.69
2018-11-29T04:16:46.626Z,19.67
2018-11-29T04:17:50.234Z,19.67
2018-11-29T04:18:53.636Z,19.65
2018-11-29T04:19:57.188Z,19.64
2018-11-29T04:21:00.601Z,19.64
2018-11-29T04:22:03.990Z,19.63
2018-11-29T04:23:07.488Z,19.64
2018-11-29T04:24:10.900Z,19.62
2018-11-29T04:25:15.283Z,19.61
2018-11-29T04:26:18.772Z,19.59
2018-11-29T04:27:22.212Z,19.57
2018-11-29T04:28:25.639Z,19.56
2018-11-29T04:29:29.083Z,19.56
2018-11-29T04:30:32.561Z,19.55
2018-11-29T04:31:36.023Z,19.54
2018-11-29T04:32:39.614Z,19.52
2018-11-29T04:33:42.994Z,19.52
2018-11-29T04:34:46.443Z,19.50
2018-11-29T04:35:50.017Z,19.49
2018-11-29T04:36:53.435Z,19.48
2018-11-29T04:37:56.853Z,19.47
2018-11-29T04:39:00.271Z,19.48
2018-11-29T04:40:03.856Z,19.46
2018-11-29T04:41:07.291Z,19.45
2018-11-29T04:42:10.657Z,19.45
2018-11-29T04:43:14.160Z,19.44
2018-11-29T04:44:17.642Z,19.43
2018-11-29T04:45:21.100Z,19.42
2018-11-29T04:46:55.375Z,19.41
2018-11-29T04:47:58.779Z,19.39
2018-11-29T04:49:02.166Z,19.39
2018-11-29T04:50:05.920Z,19.36
2018-11-29T04:51:09.281Z,19.35
2018-11-29T04:52:12.752Z,19.33
2018-11-29T04:53:16.273Z,19.33
2018-11-29T04:54:19.764Z,19.34
2018-11-29T04:55:24.849Z,19.32
2018-11-29T04:56:28.429Z,19.31
2018-11-29T04:57:31.895Z,19.31
2018-11-29T04:58:35.419Z,19.29
2018-11-29T04:59:38.859Z,19.29
2018-11-29T05:00:42.263Z,19.28
2018-11-29T05:01:45.674Z,19.28
2018-11-29T05:02:49.154Z,19.27
2018-11-29T05:03:52.662Z,19.26
2018-11-29T05:04:56.103Z,19.25
2018-11-29T05:05:59.557Z,19.25
2018-11-29T05:07:03.037Z,19.24
2018-11-29T05:08:06.986Z,19.23
2018-11-29T05:09:10.889Z,19.22
2018-11-29T05:10:17.994Z,19.21
2018-11-29T05:11:21.458Z,19.20
2018-11-29T05:12:24.874Z,19.19
2018-11-29T05:13:28.292Z,19.19
2018-11-29T05:14:31.694Z,19.17
2018-11-29T05:15:35.142Z,19.17
2018-11-29T05:16:38.554Z,19.16
2018-11-29T05:17:41.969Z,19.16
2018-11-29T05:18:45.398Z,19.14
2018-11-29T05:19:48.971Z,19.14
2018-11-29T05:20:52.364Z,19.14
2018-11-29T05:21:55.776Z,19.15
2018-11-29T05:22:59.187Z,19.15
2018-11-29T05:24:02.976Z,19.15
2018-11-29T05:25:07.730Z,19.16
2018-11-29T05:26:11.188Z,19.16
2018-11-29T05:27:14.649Z,19.15
2018-11-29T05:28:18.065Z,19.16
2018-11-29T05:29:21.578Z,19.16
2018-11-29T05:30:25.026Z,19.16
2018-11-29T05:31:28.526Z,19.15
2018-11-29T05:32:31.946Z,19.14
2018-11-29T05:33:35.454Z,19.13
2018-11-29T05:34:38.978Z,19.12
2018-11-29T05:35:43.384Z,19.10
2018-11-29T05:36:46.947Z,19.10
2018-11-29T05:37:51.652Z,19.11
2018-11-29T05:38:55.425Z,19.13
2018-11-29T05:39:58.850Z,19.11
2018-11-29T05:41:02.270Z,19.11
2018-11-29T05:42:05.814Z,19.11
2018-11-29T05:43:09.358Z,19.09
2018-11-29T05:44:12.801Z,19.08
2018-11-29T05:45:16.253Z,19.05
2018-11-29T05:46:19.714Z,19.04
2018-11-29T05:47:23.129Z,19.04
2018-11-29T05:48:26.605Z,19.02
2018-11-29T05:49:30.087Z,19.01
2018-11-29T05:50:33.518Z,19.00
2018-11-29T05:51:36.953Z,19.00
2018-11-29T05:52:41.861Z,18.99
2018-11-29T05:53:44.323Z,18.99
2018-11-29T05:54:47.828Z,18.99
2018-11-29T05:55:51.301Z,18.98
2018-11-29T05:56:54.827Z,18.97
2018-11-29T05:57:58.242Z,18.95
2018-11-29T05:59:01.645Z,18.96
2018-11-29T06:00:06.357Z,18.95
2018-11-29T06:01:14.238Z,18.94
2018-11-29T06:02:17.807Z,18.92
2018-11-29T06:03:21.337Z,18.91
2018-11-29T06:04:24.726Z,18.92
2018-11-29T06:05:28.172Z,18.92
2018-11-29T06:06:31.596Z,18.93
2018-11-29T06:07:35.004Z,18.94
2018-11-29T06:08:38.523Z,18.96
2018-11-29T06:09:41.973Z,18.98
2018-11-29T06:10:45.378Z,18.97
2018-11-29T06:11:48.853Z,18.95
2018-11-29T06:12:52.254Z,18.94
2018-11-29T06:13:55.657Z,18.93
2018-11-29T06:14:59.072Z,18.91
2018-11-29T06:16:02.507Z,18.90
2018-11-29T06:17:06.224Z,18.89
2018-11-29T06:18:09.955Z,18.87
2018-11-29T06:19:13.365Z,18.86
2018-11-29T06:20:18.144Z,18.84
2018-11-29T06:21:21.648Z,18.83
2018-11-29T06:22:25.110Z,18.82
2018-11-29T06:23:28.512Z,18.81
2018-11-29T06:24:31.932Z,18.80
2018-11-29T06:25:35.387Z,18.77
2018-11-29T06:26:38.823Z,18.76
2018-11-29T06:27:42.253Z,18.75
2018-11-29T06:28:45.682Z,18.75
2018-11-29T06:29:49.179Z,18.75
2018-11-29T06:30:52.634Z,18.74
2018-11-29T06:31:56.000Z,18.73
2018-11-29T06:32:59.439Z,18.72
2018-11-29T06:34:02.851Z,18.72
2018-11-29T06:35:07.320Z,18.72
2018-11-29T06:36:10.731Z,18.72
2018-11-29T06:37:14.199Z,18.70
2018-11-29T06:38:17.668Z,18.69
2018-11-29T06:39:21.261Z,18.68
2018-11-29T06:40:24.679Z,18.68
2018-11-29T06:41:28.048Z,18.68
2018-11-29T06:42:31.490Z,18.66
2018-11-29T06:43:34.990Z,18.65
2018-11-29T06:44:38.434Z,18.66
2018-11-29T06:45:41.862Z,18.64
2018-11-29T06:46:45.290Z,18.64
2018-11-29T06:47:49.939Z,18.64
2018-11-29T06:48:53.387Z,18.64
2018-11-29T06:49:56.784Z,18.62
2018-11-29T06:51:00.226Z,18.62
2018-11-29T06:52:03.708Z,18.62
2018-11-29T06:53:11.337Z,18.62
2018-11-29T06:54:14.817Z,18.61
2018-11-29T06:55:25.564Z,18.61
2018-11-29T06:56:29.038Z,18.60
2018-11-29T06:57:32.470Z,18.59
2018-11-29T06:58:35.897Z,18.58
2018-11-29T06:59:39.408Z,18.59
2018-11-29T07:00:42.817Z,18.58
2018-11-29T07:01:46.375Z,18.59
2018-11-29T07:02:49.780Z,18.59
2018-11-29T07:03:53.172Z,18.60
2018-11-29T07:04:56.617Z,18.63
2018-11-29T07:06:00.132Z,18.62
2018-11-29T07:07:03.561Z,18.59
2018-11-29T07:08:07.332Z,18.51
2018-11-29T07:09:10.739Z,18.42
2018-11-29T07:10:14.157Z,18.32
2018-11-29T07:11:17.877Z,18.26
2018-11-29T07:12:21.274Z,18.15
2018-11-29T07:13:24.796Z,18.06
2018-11-29T07:14:28.216Z,17.93
2018-11-29T07:15:32.183Z,17.84
2018-11-29T07:16:35.612Z,17.72
2018-11-29T07:17:39.481Z,17.68
2018-11-29T07:18:42.916Z,17.63
2018-11-29T07:19:46.336Z,17.54
2018-11-29T07:21:01.147Z,17.54
2018-11-29T07:22:04.666Z,17.55
2018-11-29T07:23:08.132Z,17.56
2018-11-29T07:24:11.582Z,17.62
2018-11-29T07:25:15.030Z,17.64
2018-11-29T07:26:18.546Z,17.69
2018-11-29T07:27:21.948Z,17.73
2018-11-29T07:28:26.206Z,17.77
2018-11-29T07:29:29.685Z,17.81
2018-11-29T07:30:33.074Z,17.86
2018-11-29T07:31:36.548Z,17.90
2018-11-29T07:32:40.174Z,17.94
2018-11-29T07:33:43.672Z,17.99
2018-11-29T07:34:47.095Z,18.01
2018-11-29T07:35:50.582Z,18.05
2018-11-29T07:36:53.989Z,18.09
2018-11-29T07:37:57.447Z,18.13
2018-11-29T07:39:00.985Z,18.15
2018-11-29T07:40:04.930Z,18.17
2018-11-29T07:41:08.344Z,18.20
2018-11-29T07:42:11.820Z,18.22
2018-11-29T07:43:15.324Z,18.23
2018-11-29T07:44:18.829Z,18.24
2018-11-29T07:45:22.522Z,18.25
2018-11-29T07:46:25.923Z,18.27
2018-11-29T07:47:29.341Z,18.29
2018-11-29T07:48:32.762Z,18.30
2018-11-29T07:49:36.181Z,18.30
2018-11-29T07:50:39.584Z,18.31
2018-11-29T07:51:43.388Z,18.32
2018-11-29T07:52:47.165Z,18.33
2018-11-29T07:53:50.773Z,18.32
2018-11-29T07:54:54.257Z,18.33
2018-11-29T07:55:57.691Z,18.33
2018-11-29T07:57:01.832Z,18.35
2018-11-29T07:58:06.404Z,18.34
2018-11-29T07:59:14.833Z,18.34
2018-11-29T08:00:18.742Z,18.35
2018-11-29T08:01:22.668Z,18.34
2018-11-29T08:02:26.075Z,18.35
2018-11-29T08:03:29.975Z,18.35
2018-11-29T08:04:33.363Z,18.36
2018-11-29T08:05:36.781Z,18.35
2018-11-29T08:06:41.328Z,18.35
2018-11-29T08:07:48.050Z,18.36
2018-11-29T08:08:51.948Z,18.35
2018-11-29T08:09:55.356Z,18.37
2018-11-29T08:11:01.078Z,18.36
2018-11-29T08:12:04.687Z,18.36
2018-11-29T08:13:08.175Z,18.36
2018-11-29T08:14:11.609Z,18.35
2018-11-29T08:15:18.501Z,18.35
2018-11-29T08:16:21.979Z,18.35
2018-11-29T08:17:25.386Z,18.36
2018-11-29T08:18:28.797Z,18.35
2018-11-29T08:19:32.743Z,18.35
2018-11-29T08:20:36.249Z,18.35
2018-11-29T08:21:39.705Z,18.35
2018-11-29T08:22:43.170Z,18.34
2018-11-29T08:23:47.059Z,18.34
2018-11-29T08:24:50.535Z,18.34
2018-11-29T08:25:54.014Z,18.34
2018-11-29T08:26:57.428Z,18.34
2018-11-29T08:28:00.865Z,18.34
2018-11-29T08:29:04.422Z,18.33
2018-11-29T08:30:10.607Z,18.34
2018-11-29T08:31:14.207Z,18.34
2018-11-29T08:32:17.683Z,18.33
2018-11-29T08:33:21.273Z,18.34
2018-11-29T08:34:24.754Z,18.33
2018-11-29T08:35:28.898Z,18.33
2018-11-29T08:36:32.495Z,18.33
2018-11-29T08:37:36.097Z,18.32
2018-11-29T08:38:39.879Z,18.33
2018-11-29T08:39:43.562Z,18.32
2018-11-29T08:40:47.024Z,18.33
2018-11-29T08:41:50.494Z,18.32
2018-11-29T08:42:53.959Z,18.32
2018-11-29T08:43:57.575Z,18.32
2018-11-29T08:45:00.995Z,18.31
2018-11-29T08:46:04.512Z,18.31
2018-11-29T08:47:07.964Z,18.32
2018-11-29T08:48:11.328Z,18.31
2018-11-29T08:49:14.944Z,18.31
2018-11-29T08:50:18.531Z,18.30
2018-11-29T08:51:21.976Z,18.30
2018-11-29T08:52:25.378Z,18.31
2018-11-29T08:53:28.785Z,18.30
2018-11-29T08:54:32.279Z,18.29
2018-11-29T08:55:35.770Z,18.30
2018-11-29T08:56:39.186Z,18.29
2018-11-29T08:57:42.661Z,18.30
2018-11-29T08:58:46.101Z,18.28
2018-11-29T08:59:49.514Z,18.28
2018-11-29T09:00:52.967Z,18.29
2018-11-29T09:01:56.420Z,18.28
2018-11-29T09:02:59.856Z,18.28
2018-11-29T09:04:03.312Z,18.28
2018-11-29T09:05:07.898Z,18.28
2018-11-29T09:06:11.343Z,18.27
2018-11-29T09:07:14.757Z,18.26
2018-11-29T09:08:18.190Z,18.27
2018-11-29T09:09:21.608Z,18.27
2018-11-29T09:10:31.357Z,18.28
2018-11-29T09:11:28.653Z,18.30
2018-11-29T09:12:32.166Z,18.34
2018-11-29T09:13:35.707Z,18.39
2018-11-29T09:14:39.104Z,18.48
2018-11-29T09:15:42.597Z,18.64
2018-11-29T09:16:46.074Z,18.76
2018-11-29T09:17:49.853Z,18.87
2018-11-29T09:18:53.257Z,19.09
2018-11-29T09:19:56.675Z,19.24
2018-11-29T09:21:00.217Z,19.44
2018-11-29T09:22:03.759Z,19.55
2018-11-29T09:23:07.438Z,19.63
2018-11-29T09:24:10.935Z,19.76
2018-11-29T09:25:15.474Z,19.82
2018-11-29T09:26:18.916Z,19.86
2018-11-29T09:27:22.381Z,19.92
2018-11-29T09:28:25.811Z,19.98
2018-11-29T09:29:29.291Z,20.00
2018-11-29T09:30:32.724Z,19.98
2018-11-29T09:31:36.137Z,19.98
2018-11-29T09:32:39.587Z,19.97
2018-11-29T09:33:43.039Z,19.96
2018-11-29T09:34:46.473Z,19.95
2018-11-29T09:35:49.923Z,19.96
2018-11-29T09:36:53.360Z,19.95
2018-11-29T09:37:56.771Z,19.92
2018-11-29T09:39:00.367Z,19.90
2018-11-29T09:40:04.433Z,19.87
2018-11-29T09:41:07.996Z,19.85
2018-11-29T09:42:11.452Z,19.84
2018-11-29T09:43:14.840Z,19.81
2018-11-29T09:44:18.301Z,19.80
2018-11-29T09:45:23.675Z,19.76
2018-11-29T09:46:27.097Z,19.73
2018-11-29T09:47:30.592Z,19.73
2018-11-29T09:48:34.014Z,19.71
2018-11-29T09:49:37.425Z,19.72
2018-11-29T09:50:40.814Z,19.81
2018-11-29T09:51:44.269Z,19.90
2018-11-29T09:52:47.739Z,20.02
2018-11-29T09:53:51.191Z,20.09
2018-11-29T09:54:54.712Z,20.17
2018-11-29T09:55:58.192Z,20.29
2018-11-29T09:57:01.613Z,20.38
2018-11-29T09:58:05.435Z,20.45
2018-11-29T09:59:09.248Z,20.48
2018-11-29T10:00:18.989Z,20.52
2018-11-29T10:01:22.407Z,20.54
2018-11-29T10:02:25.831Z,20.55
2018-11-29T10:03:29.288Z,20.56
2018-11-29T10:04:32.753Z,20.57
2018-11-29T10:05:36.383Z,20.56
2018-11-29T10:06:40.064Z,20.59
2018-11-29T10:07:43.558Z,20.66
2018-11-29T10:08:47.022Z,20.72
2018-11-29T10:09:50.482Z,20.74
2018-11-29T10:10:53.926Z,20.77
2018-11-29T10:11:57.350Z,20.86
2018-11-29T10:13:00.833Z,20.93
2018-11-29T10:14:04.297Z,20.96
2018-11-29T10:15:10.192Z,20.98
2018-11-29T10:16:13.662Z,20.99
2018-11-29T10:17:17.278Z,20.99
2018-11-29T10:18:20.951Z,20.98
2018-11-29T10:19:24.385Z,20.95
2018-11-29T10:20:27.922Z,20.99
2018-11-29T10:21:31.348Z,20.94
2018-11-29T10:22:34.923Z,21.01
2018-11-29T10:23:38.377Z,21.04
2018-11-29T10:24:42.207Z,21.03
2018-11-29T10:25:46.345Z,21.10
2018-11-29T10:26:50.562Z,21.12
2018-11-29T10:27:58.043Z,21.13
2018-11-29T10:29:01.930Z,21.14
2018-11-29T10:30:10.707Z,21.17
2018-11-29T10:31:14.306Z,21.21
2018-11-29T10:32:17.862Z,21.20
2018-11-29T10:33:21.499Z,21.20
2018-11-29T10:34:25.148Z,21.21
2018-11-29T10:35:28.586Z,21.21
2018-11-29T10:36:32.036Z,21.16
2018-11-29T10:37:36.718Z,21.14
2018-11-29T10:38:40.324Z,21.11
2018-11-29T10:39:43.776Z,21.08
2018-11-29T10:40:47.255Z,21.07
2018-11-29T10:41:50.784Z,21.04
2018-11-29T10:42:54.269Z,21.02
2018-11-29T10:43:57.661Z,21.01
2018-11-29T10:45:01.093Z,20.98
2018-11-29T10:46:04.548Z,20.93
2018-11-29T10:47:07.978Z,20.92
2018-11-29T10:48:15.400Z,20.88
2018-11-29T10:49:18.915Z,20.84
2018-11-29T10:50:22.541Z,20.79
2018-11-29T10:51:26.033Z,20.76
2018-11-29T10:52:29.462Z,20.72
2018-11-29T10:53:36.994Z,20.66
2018-11-29T10:54:44.395Z,20.66
2018-11-29T10:55:48.083Z,20.66
2018-11-29T10:56:51.493Z,20.71
2018-11-29T10:57:58.765Z,20.76
2018-11-29T10:59:05.636Z,20.85
2018-11-29T11:00:25.219Z,20.92
2018-11-29T11:01:31.835Z,21.04
2018-11-29T11:02:35.340Z,21.08
2018-11-29T11:03:38.761Z,21.09
2018-11-29T11:04:42.189Z,21.10
2018-11-29T11:05:46.148Z,21.15
2018-11-29T11:06:49.604Z,21.21
2018-11-29T11:07:53.031Z,21.20
2018-11-29T11:08:56.583Z,21.23
2018-11-29T11:10:00.003Z,21.22
2018-11-29T11:11:06.484Z,21.23
2018-11-29T11:12:09.959Z,21.19
2018-11-29T11:13:13.387Z,21.18
2018-11-29T11:14:16.820Z,21.12
2018-11-29T11:15:20.235Z,21.11
2018-11-29T11:16:23.708Z,21.08
2018-11-29T11:17:29.811Z,21.08
2018-11-29T11:18:33.244Z,21.08
2018-11-29T11:19:36.762Z,21.16
2018-11-29T11:20:43.325Z,21.17
2018-11-29T11:21:52.392Z,21.23
2018-11-29T11:22:56.875Z,21.30
2018-11-29T11:24:00.376Z,21.31
2018-11-29T11:25:03.985Z,21.34
2018-11-29T11:26:07.451Z,21.40
2018-11-29T11:27:10.906Z,21.39
2018-11-29T11:28:14.360Z,21.43
2018-11-29T11:29:17.800Z,21.46
2018-11-29T11:30:22.199Z,21.43
2018-11-29T11:31:30.998Z,21.44
2018-11-29T11:32:29.106Z,21.45
2018-11-29T11:33:32.546Z,21.46
2018-11-29T11:34:36.006Z,21.46
2018-11-29T11:35:39.507Z,21.41
2018-11-29T11:36:42.934Z,21.40
2018-11-29T11:37:46.389Z,21.38
2018-11-29T11:38:50.006Z,21.34
2018-11-29T11:39:53.480Z,21.34
2018-11-29T11:41:00.200Z,21.32
2018-11-29T11:42:03.891Z,21.28
2018-11-29T11:43:08.170Z,21.25
2018-11-29T11:44:11.635Z,21.21
2018-11-29T11:45:17.127Z,21.15
2018-11-29T11:46:20.579Z,21.14
2018-11-29T11:47:24.003Z,21.12
2018-11-29T11:48:27.612Z,21.12
2018-11-29T11:49:31.019Z,21.09
2018-11-29T11:50:34.476Z,21.09
2018-11-29T11:51:37.884Z,21.09
2018-11-29T11:52:41.293Z,21.05
2018-11-29T11:53:44.793Z,21.03
2018-11-29T11:54:48.267Z,21.03
2018-11-29T11:55:53.685Z,20.99
2018-11-29T11:56:55.186Z,20.97
2018-11-29T11:57:58.666Z,20.92
2018-11-29T11:59:02.275Z,20.90
2018-11-29T12:00:12.600Z,20.89
2018-11-29T12:01:16.067Z,20.87
2018-11-29T12:02:19.576Z,20.86
2018-11-29T12:03:23.015Z,20.83
2018-11-29T12:04:26.439Z,20.80
2018-11-29T12:05:29.905Z,20.79
2018-11-29T12:06:33.369Z,20.81
2018-11-29T12:07:36.947Z,20.90
2018-11-29T12:08:40.396Z,20.98
2018-11-29T12:09:43.813Z,21.04
2018-11-29T12:10:47.381Z,21.16
2018-11-29T12:11:50.955Z,21.19
2018-11-29T12:12:54.427Z,21.28
2018-11-29T12:13:57.874Z,21.28
2018-11-29T12:15:01.329Z,21.29
2018-11-29T12:16:04.974Z,21.29
2018-11-29T12:17:08.383Z,21.29
2018-11-29T12:18:12.870Z,21.30
2018-11-29T12:19:16.322Z,21.30
2018-11-29T12:20:20.700Z,21.28
2018-11-29T12:21:24.175Z,21.27
2018-11-29T12:22:27.646Z,21.29
2018-11-29T12:23:31.090Z,21.30
2018-11-29T12:24:34.555Z,21.30
2018-11-29T12:25:37.966Z,21.30
2018-11-29T12:26:41.422Z,21.29
2018-11-29T12:27:44.938Z,21.26
2018-11-29T12:28:48.363Z,21.23
2018-11-29T12:29:51.902Z,21.20
2018-11-29T12:30:55.325Z,21.20
2018-11-29T12:31:58.752Z,21.18
2018-11-29T12:33:03.436Z,21.20
2018-11-29T12:34:06.856Z,21.16
2018-11-29T12:35:10.322Z,21.15
2018-11-29T12:36:13.771Z,21.12
2018-11-29T12:37:17.236Z,21.16
2018-11-29T12:38:20.718Z,21.20
2018-11-29T12:39:24.255Z,21.19
2018-11-29T12:40:27.817Z,21.19
2018-11-29T12:41:31.245Z,21.18
2018-11-29T12:42:34.644Z,21.19
2018-11-29T12:43:38.114Z,21.18
2018-11-29T12:44:41.533Z,21.18
2018-11-29T12:45:45.030Z,21.17
2018-11-29T12:46:48.522Z,21.18
2018-11-29T12:47:52.003Z,21.18
2018-11-29T12:48:55.430Z,21.16
2018-11-29T12:49:58.839Z,21.18
2018-11-29T12:51:02.263Z,21.23
2018-11-29T12:52:06.359Z,21.22
2018-11-29T12:53:09.822Z,21.22
2018-11-29T12:54:13.244Z,21.21
2018-11-29T12:55:17.899Z,21.21
2018-11-29T12:56:21.419Z,21.23
2018-11-29T12:57:24.863Z,21.23
2018-11-29T12:58:28.318Z,21.22
2018-11-29T12:59:31.755Z,21.18
2018-11-29T13:00:35.206Z,21.17
2018-11-29T13:01:38.664Z,21.14
2018-11-29T13:02:52.634Z,21.17
2018-11-29T13:03:59.255Z,21.18
2018-11-29T13:05:02.744Z,21.19
2018-11-29T13:06:06.827Z,21.22
2018-11-29T13:07:10.296Z,21.25
2018-11-29T13:08:13.750Z,21.24
2018-11-29T13:09:17.316Z,21.27
2018-11-29T13:10:23.768Z,21.25
2018-11-29T13:11:26.413Z,21.26
2018-11-29T13:12:29.848Z,21.24
2018-11-29T13:13:33.298Z,21.23
2018-11-29T13:14:36.724Z,21.21
2018-11-29T13:15:40.189Z,21.20
2018-11-29T13:16:43.633Z,21.19
2018-11-29T13:17:47.424Z,21.16
2018-11-29T13:18:51.078Z,21.12
2018-11-29T13:19:54.633Z,21.07
2018-11-29T13:21:03.408Z,21.03
2018-11-29T13:22:06.804Z,21.00
2018-11-29T13:23:10.224Z,20.97
2018-11-29T13:24:13.619Z,20.93
2018-11-29T13:25:18.489Z,20.90
2018-11-29T13:26:21.991Z,20.87
2018-11-29T13:27:25.579Z,20.82
2018-11-29T13:28:29.133Z,20.78
2018-11-29T13:29:32.521Z,20.75
2018-11-29T13:30:37.138Z,20.71
2018-11-29T13:31:40.636Z,20.67
2018-11-29T13:32:44.588Z,20.62
2018-11-29T13:33:48.836Z,20.54
2018-11-29T13:34:52.201Z,20.46
2018-11-29T13:35:55.678Z,20.39
2018-11-29T13:36:59.085Z,20.32
2018-11-29T13:38:05.738Z,20.17
2018-11-29T13:39:09.714Z,20.07
2018-11-29T13:40:13.276Z,19.95
2018-11-29T13:41:16.765Z,19.91